Terminal Aerodrome Forecast
Issued by NWS

Home | Current Version | Previous Version | Text Only | Print | Product List | Glossary On
Versions: 1 2 3 4 5 6 7 8 9 10 11 12 13 14 15 16 17 18 19 20 21 22 23 24 25 26
000
FTUS45 KSLC 222014 AAA
TAFSGU
TAF AMD
KSGU 222014Z 2220/2318 VRB05KT P6SM SCT150
     FM222200 26010G17KT P6SM SCT010 SCT150
     FM230200 04010KT P6SM SCT150
     FM230800 VRB05KT P6SM SKC
      AMD LTD TO CLD VIS AND WIND=

USA.gov is the U.S. government's official web portal to all federal, state and local government web resources and services.